createdAt,value
2022-11-05T00:00:32.193Z,81.12
2022-11-05T00:03:17.521Z,81.18
2022-11-05T00:06:05.496Z,81.04
2022-11-05T00:08:50.695Z,81.13
2022-11-05T00:11:18.410Z,81.14
2022-11-05T00:14:04.403Z,81.54
2022-11-05T00:16:45.736Z,81.35
2022-11-05T00:19:13.512Z,81.42
2022-11-05T00:21:58.612Z,81.58
2022-11-05T00:24:43.857Z,81.52
2022-11-05T00:27:12.121Z,81.52
2022-11-05T00:29:38.695Z,81.45
2022-11-05T00:32:06.287Z,81.29
2022-11-05T00:34:33.187Z,81.17
2022-11-05T00:36:59.658Z,81.32
2022-11-05T00:39:26.415Z,81.00
2022-11-05T00:42:11.329Z,81.17
2022-11-05T00:44:56.279Z,80.96
2022-11-05T00:47:41.040Z,81.09
2022-11-05T00:50:07.774Z,80.92
2022-11-05T00:52:53.171Z,80.79
2022-11-05T00:55:20.025Z,80.79
2022-11-05T00:57:46.733Z,80.61
2022-11-05T01:00:13.961Z,80.45
2022-11-05T01:02:41.209Z,80.53
2022-11-05T01:05:08.982Z,80.30
2022-11-05T01:07:36.853Z,80.51
2022-11-05T01:10:04.644Z,80.29
2022-11-05T01:12:32.032Z,80.14
2022-11-05T01:14:59.219Z,80.14
2022-11-05T01:17:25.883Z,80.36
2022-11-05T01:19:52.773Z,80.54
2022-11-05T01:22:20.323Z,79.96
2022-11-05T01:24:46.864Z,80.19
2022-11-05T01:27:13.557Z,80.07
2022-11-05T01:29:40.129Z,79.98
2022-11-05T01:32:06.589Z,80.25
2022-11-05T01:34:32.999Z,80.11
2022-11-05T01:36:59.459Z,80.65
2022-11-05T01:39:25.842Z,80.09
2022-11-05T01:41:52.279Z,80.74
2022-11-05T01:44:56.828Z,80.51
2022-11-05T01:47:27.820Z,80.43
2022-11-05T01:49:55.004Z,80.33
2022-11-05T01:52:22.663Z,80.95
2022-11-05T01:54:49.689Z,80.26
2022-11-05T01:57:16.602Z,80.28
2022-11-05T01:59:50.761Z,80.81
2022-11-05T02:02:18.040Z,81.00
2022-11-05T02:04:50.557Z,80.69
2022-11-05T02:07:17.874Z,80.46
2022-11-05T02:09:57.150Z,80.43
2022-11-05T02:12:24.107Z,79.97
2022-11-05T02:14:50.549Z,79.95
2022-11-05T02:17:30.280Z,79.78
2022-11-05T02:20:11.678Z,80.36
2022-11-05T02:22:48.448Z,80.13
2022-11-05T02:25:53.533Z,80.20
2022-11-05T02:28:38.811Z,80.01
2022-11-05T02:31:39.973Z,80.42
2022-11-05T02:34:35.432Z,79.85
2022-11-05T02:37:16.850Z,80.02
2022-11-05T02:39:52.377Z,80.13
2022-11-05T02:42:21.779Z,80.36
2022-11-05T02:45:00.158Z,79.39
2022-11-05T02:47:34.296Z,79.85
2022-11-05T02:50:22.169Z,79.98
2022-11-05T02:52:59.354Z,80.27
2022-11-05T02:55:37.762Z,80.11
2022-11-05T02:58:05.107Z,80.44
2022-11-05T03:00:49.355Z,80.30
2022-11-05T03:03:34.746Z,81.00
2022-11-05T03:06:04.269Z,81.26
2022-11-05T03:08:53.656Z,81.38
2022-11-05T03:11:22.926Z,81.26
2022-11-05T03:14:14.329Z,81.42
2022-11-05T03:16:44.139Z,81.25
2022-11-05T03:19:30.791Z,81.73
2022-11-05T03:22:02.339Z,81.56
2022-11-05T03:24:34.497Z,81.75
2022-11-05T03:27:07.231Z,81.94
2022-11-05T03:29:40.852Z,81.35
2022-11-05T03:32:09.686Z,81.59
2022-11-05T03:34:40.227Z,81.55
2022-11-05T03:37:09.614Z,82.20
2022-11-05T03:39:44.405Z,81.72
2022-11-05T03:42:14.606Z,81.87
2022-11-05T03:44:47.808Z,82.09
2022-11-05T03:47:20.119Z,81.89
2022-11-05T03:49:59.867Z,82.54
2022-11-05T03:52:31.912Z,82.49
2022-11-05T03:54:58.367Z,81.83
2022-11-05T03:57:32.857Z,81.73
2022-11-05T03:59:59.294Z,82.48
2022-11-05T04:02:27.078Z,82.13
2022-11-05T04:04:54.790Z,81.67
2022-11-05T04:07:39.927Z,82.19
2022-11-05T04:10:25.335Z,82.39
2022-11-05T04:13:10.629Z,81.77
2022-11-05T04:15:56.194Z,81.84
2022-11-05T04:18:22.608Z,81.81
2022-11-05T04:21:07.486Z,82.10
2022-11-05T04:23:52.400Z,81.70
2022-11-05T04:26:23.170Z,81.41
2022-11-05T04:29:09.504Z,81.96
2022-11-05T04:31:36.615Z,81.87
2022-11-05T04:34:03.209Z,81.30
2022-11-05T04:36:29.617Z,82.28
2022-11-05T04:38:56.245Z,81.68
2022-11-05T04:41:22.923Z,81.19
2022-11-05T04:43:49.655Z,81.23
2022-11-05T04:46:16.225Z,81.98
2022-11-05T04:48:42.651Z,80.95
2022-11-05T04:51:09.393Z,81.19
2022-11-05T04:53:35.838Z,80.94
2022-11-05T04:56:15.092Z,81.08
2022-11-05T04:58:42.293Z,80.69
2022-11-05T05:01:21.058Z,81.26
2022-11-05T05:03:49.726Z,80.78
2022-11-05T05:06:17.359Z,80.55
2022-11-05T05:08:43.938Z,80.38
2022-11-05T05:11:12.666Z,80.19
2022-11-05T05:13:39.125Z,81.09
2022-11-05T05:16:11.729Z,80.15
2022-11-05T05:18:42.143Z,80.60
2022-11-05T05:21:29.955Z,80.27
2022-11-05T05:23:56.388Z,80.41
2022-11-05T05:26:22.791Z,80.35
2022-11-05T05:28:49.165Z,79.92
2022-11-05T05:31:15.577Z,81.58
2022-11-05T05:33:41.959Z,80.63
2022-11-05T05:36:11.519Z,80.63
2022-11-05T05:38:38.101Z,80.78
2022-11-05T05:41:04.608Z,80.42
2022-11-05T05:43:34.238Z,80.78
2022-11-05T05:46:09.820Z,80.43
2022-11-05T05:48:36.268Z,80.65
2022-11-05T05:51:05.403Z,80.65
2022-11-05T05:53:32.311Z,80.44
2022-11-05T05:55:59.405Z,81.00
2022-11-05T05:58:27.374Z,80.53
2022-11-05T06:00:54.292Z,80.16
2022-11-05T06:03:21.326Z,80.28
2022-11-05T06:05:47.718Z,80.83
2022-11-05T06:08:14.184Z,80.17
2022-11-05T06:10:40.925Z,81.00
2022-11-05T06:13:07.458Z,80.10
2022-11-05T06:15:36.040Z,79.69
2022-11-05T06:18:02.702Z,80.60
2022-11-05T06:20:29.141Z,79.79
2022-11-05T06:22:56.584Z,80.42
2022-11-05T06:25:23.479Z,80.12
2022-11-05T06:27:49.959Z,80.33
2022-11-05T06:30:17.617Z,80.00
2022-11-05T06:32:44.724Z,79.48
2022-11-05T06:35:11.146Z,80.10
2022-11-05T06:37:37.520Z,80.99
2022-11-05T06:40:04.325Z,80.17
2022-11-05T06:42:30.708Z,80.80
2022-11-05T06:44:57.149Z,80.99
2022-11-05T06:47:23.630Z,80.67
2022-11-05T06:49:50.291Z,80.78
2022-11-05T06:52:17.290Z,80.86
2022-11-05T06:54:44.166Z,81.12
2022-11-05T06:57:12.117Z,80.69
2022-11-05T06:59:39.263Z,80.62
2022-11-05T07:02:06.802Z,80.05
2022-11-05T07:04:33.628Z,80.18
2022-11-05T07:07:03.041Z,80.84
2022-11-05T07:09:29.887Z,80.63
2022-11-05T07:11:56.328Z,80.40
2022-11-05T07:14:22.782Z,81.08
2022-11-05T07:16:49.197Z,81.06
2022-11-05T07:19:15.883Z,80.32
2022-11-05T07:21:42.767Z,80.24
2022-11-05T07:24:09.198Z,79.96
2022-11-05T07:26:35.568Z,79.91
2022-11-05T07:29:02.053Z,80.60
2022-11-05T07:31:28.427Z,79.99
2022-11-05T07:33:54.831Z,80.54
2022-11-05T07:36:21.191Z,79.97
2022-11-05T07:38:47.578Z,79.68
2022-11-05T07:41:13.952Z,80.06
2022-11-05T07:43:40.340Z,80.00
2022-11-05T07:46:12.672Z,79.82
2022-11-05T07:48:40.160Z,80.07
2022-11-05T07:51:06.604Z,79.72
2022-11-05T07:53:33.000Z,79.74
2022-11-05T07:55:59.474Z,79.75
2022-11-05T07:58:25.922Z,79.81
2022-11-05T08:00:52.500Z,79.79
2022-11-05T08:03:19.852Z,80.20
2022-11-05T08:05:47.638Z,79.45
2022-11-05T08:08:17.246Z,79.87
2022-11-05T08:10:43.776Z,79.37
2022-11-05T08:13:11.745Z,79.50
2022-11-05T08:15:38.969Z,79.14
2022-11-05T08:18:07.903Z,78.99
2022-11-05T08:20:35.290Z,79.17
2022-11-05T08:23:01.789Z,78.83
2022-11-05T08:25:28.513Z,79.10
2022-11-05T08:27:57.539Z,78.91
2022-11-05T08:30:27.098Z,78.73
2022-11-05T08:33:11.210Z,78.49
2022-11-05T08:35:38.839Z,78.14
2022-11-05T08:38:06.925Z,78.01
2022-11-05T08:40:35.716Z,78.15
2022-11-05T08:43:05.407Z,77.75
2022-11-05T08:45:31.853Z,77.48
2022-11-05T08:48:08.566Z,77.18
2022-11-05T08:50:35.638Z,77.12
2022-11-05T08:53:02.034Z,77.48
2022-11-05T08:55:28.761Z,77.07
2022-11-05T08:57:59.667Z,76.90
2022-11-05T09:00:28.802Z,76.73
2022-11-05T09:02:55.248Z,76.93
2022-11-05T09:05:21.674Z,76.66
2022-11-05T09:07:48.109Z,76.18
2022-11-05T09:10:14.622Z,75.25
2022-11-05T09:12:41.040Z,75.05
2022-11-05T09:15:08.084Z,74.63
2022-11-05T09:17:34.770Z,73.59
2022-11-05T09:20:03.160Z,72.79
2022-11-05T09:22:29.737Z,72.05
2022-11-05T09:24:56.233Z,71.70
2022-11-05T09:27:22.612Z,70.79
2022-11-05T09:29:48.974Z,70.00
2022-11-05T09:32:19.070Z,70.17
2022-11-05T09:34:45.756Z,69.32
2022-11-05T09:37:12.310Z,69.05
2022-11-05T09:39:38.712Z,68.60
2022-11-05T09:42:08.958Z,68.11
2022-11-05T09:44:59.694Z,67.08
2022-11-05T09:47:32.805Z,66.44
2022-11-05T09:50:02.344Z,66.10
2022-11-05T09:52:31.430Z,66.00
2022-11-05T09:54:58.369Z,65.93
2022-11-05T09:57:32.559Z,65.72
2022-11-05T10:00:03.406Z,65.00
2022-11-05T10:02:36.003Z,64.77
2022-11-05T10:05:10.076Z,64.90
2022-11-05T10:07:45.300Z,64.71
2022-11-05T10:10:23.103Z,64.52
2022-11-05T10:12:54.722Z,63.95
2022-11-05T10:15:26.984Z,63.97
2022-11-05T10:18:12.313Z,63.25
2022-11-05T10:20:39.400Z,61.52
2022-11-05T10:23:11.739Z,60.54
2022-11-05T10:25:41.810Z,60.08
2022-11-05T10:28:11.619Z,60.08
2022-11-05T10:30:38.199Z,59.17
2022-11-05T10:33:06.772Z,58.33
2022-11-05T10:35:39.039Z,56.62
2022-11-05T10:38:05.446Z,56.24
2022-11-05T10:40:38.350Z,56.15
2022-11-05T10:43:24.636Z,55.32
2022-11-05T10:46:00.068Z,54.92
2022-11-05T10:49:04.942Z,54.56
2022-11-05T10:51:33.489Z,54.46
2022-11-05T10:54:05.670Z,54.11
2022-11-05T10:56:37.483Z,53.86
2022-11-05T10:59:11.942Z,54.82
2022-11-05T11:01:39.184Z,54.62
2022-11-05T11:04:22.101Z,54.66
2022-11-05T11:06:52.369Z,54.75
2022-11-05T11:09:36.335Z,54.35
2022-11-05T11:12:13.928Z,54.73
2022-11-05T11:14:40.585Z,55.06
2022-11-05T11:17:28.213Z,54.72
2022-11-05T11:20:16.049Z,55.27
2022-11-05T11:22:42.444Z,55.51
2022-11-05T11:25:25.038Z,55.99
2022-11-05T11:27:52.303Z,56.31
2022-11-05T11:30:20.364Z,56.49
2022-11-05T11:32:48.926Z,56.51
2022-11-05T11:35:21.480Z,56.96
2022-11-05T11:37:49.334Z,57.25
2022-11-05T11:40:20.073Z,57.49
2022-11-05T11:42:50.858Z,57.77
2022-11-05T11:45:47.563Z,57.74
2022-11-05T11:48:19.315Z,58.19
2022-11-05T11:50:47.952Z,58.40
2022-11-05T11:53:23.035Z,58.66
2022-11-05T11:55:55.565Z,58.83
2022-11-05T11:58:25.142Z,59.16
2022-11-05T12:01:09.490Z,59.26
2022-11-05T12:03:47.033Z,59.23
2022-11-05T12:06:55.304Z,59.61
2022-11-05T12:09:39.411Z,59.41
2022-11-05T12:12:14.404Z,59.22
2022-11-05T12:15:02.043Z,59.13
2022-11-05T12:17:35.576Z,59.70
2022-11-05T12:20:25.383Z,59.45
2022-11-05T12:23:05.756Z,59.85
2022-11-05T12:25:48.838Z,60.09
2022-11-05T12:29:16.772Z,59.41
2022-11-05T12:31:58.993Z,60.05
2022-11-05T12:34:43.353Z,60.14
2022-11-05T12:37:22.223Z,60.31
2022-11-05T12:40:17.429Z,60.27
2022-11-05T12:43:11.414Z,60.21
2022-11-05T12:46:04.673Z,60.40
2022-11-05T12:48:54.125Z,59.73
2022-11-05T12:51:47.896Z,59.01
2022-11-05T12:54:52.311Z,59.77
2022-11-05T12:57:22.423Z,59.70
2022-11-05T13:00:12.955Z,59.75
2022-11-05T13:02:48.961Z,60.09
2022-11-05T13:05:36.381Z,60.14
2022-11-05T13:08:11.757Z,60.31
2022-11-05T13:10:51.879Z,59.50
2022-11-05T13:13:33.408Z,59.38
2022-11-05T13:16:22.688Z,59.10
2022-11-05T13:18:54.828Z,59.18
2022-11-05T13:21:24.267Z,59.24
2022-11-05T13:24:01.449Z,59.12
2022-11-05T13:26:35.269Z,59.11
2022-11-05T13:29:14.347Z,59.27
2022-11-05T13:31:45.409Z,58.97
2022-11-05T13:34:13.092Z,59.01
2022-11-05T13:37:16.434Z,58.81
2022-11-05T13:39:47.779Z,59.56
2022-11-05T13:42:35.269Z,59.47
2022-11-05T13:45:30.986Z,59.94
2022-11-05T13:48:23.700Z,60.15
2022-11-05T13:51:39.491Z,60.03
2022-11-05T13:54:46.153Z,60.44
2022-11-05T13:57:24.614Z,60.57
2022-11-05T14:00:03.362Z,60.75
2022-11-05T14:02:36.788Z,60.65
2022-11-05T14:05:05.927Z,60.90
2022-11-05T14:07:43.844Z,61.30
2022-11-05T14:10:24.075Z,61.44
2022-11-05T14:12:52.888Z,61.39
2022-11-05T14:15:30.887Z,61.64
2022-11-05T14:18:01.992Z,61.69
2022-11-05T14:20:31.145Z,61.79
2022-11-05T14:23:23.023Z,61.93
2022-11-05T14:25:56.607Z,61.97
2022-11-05T14:28:34.874Z,62.11
2022-11-05T14:31:02.131Z,62.36
2022-11-05T14:33:28.514Z,62.52
2022-11-05T14:36:30.019Z,63.08
2022-11-05T14:39:04.439Z,63.08
2022-11-05T14:41:31.243Z,63.14
2022-11-05T14:43:59.602Z,63.54
2022-11-05T14:46:40.766Z,63.80
2022-11-05T14:49:16.749Z,63.92
2022-11-05T14:51:49.919Z,63.90
2022-11-05T14:54:45.743Z,64.39
2022-11-05T14:57:36.250Z,64.30
2022-11-05T15:00:04.440Z,64.68
2022-11-05T15:02:37.764Z,64.74
2022-11-05T15:05:45.342Z,64.66
2022-11-05T15:08:26.922Z,64.88
2022-11-05T15:10:56.664Z,65.11
2022-11-05T15:13:34.291Z,65.43
2022-11-05T15:16:03.390Z,65.68
2022-11-05T15:18:35.403Z,65.73
2022-11-05T15:21:04.751Z,65.52
2022-11-05T15:23:40.625Z,66.07
2022-11-05T15:26:36.721Z,66.49
2022-11-05T15:29:13.713Z,66.81
2022-11-05T15:31:41.237Z,66.75
2022-11-05T15:34:19.788Z,67.22
2022-11-05T15:36:53.382Z,67.15
2022-11-05T15:39:30.218Z,67.22
2022-11-05T15:41:58.559Z,67.42
2022-11-05T15:44:39.473Z,67.45
2022-11-05T15:47:19.577Z,67.28
2022-11-05T15:49:57.972Z,67.10
2022-11-05T15:52:33.349Z,66.95
2022-11-05T15:55:06.824Z,67.08
2022-11-05T15:57:35.166Z,67.08
2022-11-05T16:00:15.568Z,67.23
2022-11-05T16:02:42.219Z,67.41
2022-11-05T16:05:14.069Z,67.15
2022-11-05T16:07:45.625Z,67.33
2022-11-05T16:10:25.513Z,67.57
2022-11-05T16:12:52.138Z,67.63
2022-11-05T16:15:24.815Z,67.50
2022-11-05T16:17:59.427Z,67.21
2022-11-05T16:20:34.568Z,67.78
2022-11-05T16:23:06.353Z,67.63
2022-11-05T16:25:39.837Z,67.58
2022-11-05T16:28:23.836Z,67.51
2022-11-05T16:30:55.465Z,67.84
2022-11-05T16:33:22.055Z,67.77
2022-11-05T16:35:49.818Z,67.58
2022-11-05T16:38:17.634Z,67.68
2022-11-05T16:40:44.047Z,67.66
2022-11-05T16:43:19.939Z,67.75
2022-11-05T16:45:46.475Z,68.37
2022-11-05T16:48:14.236Z,68.10
2022-11-05T16:50:41.700Z,68.76
2022-11-05T16:53:08.426Z,68.49
2022-11-05T16:55:37.405Z,68.50
2022-11-05T16:58:04.345Z,68.08
2022-11-05T17:00:30.939Z,68.43
2022-11-05T17:02:57.449Z,68.63
2022-11-05T17:05:27.773Z,68.52
2022-11-05T17:07:55.080Z,68.66
2022-11-05T17:10:23.333Z,68.31
2022-11-05T17:12:50.107Z,68.65
2022-11-05T17:15:25.833Z,68.44
2022-11-05T17:17:54.109Z,68.42
2022-11-05T17:20:56.195Z,68.69
2022-11-05T17:23:26.643Z,68.84
2022-11-05T17:25:58.756Z,68.83
2022-11-05T17:28:25.125Z,68.89
2022-11-05T17:30:54.590Z,69.16
2022-11-05T17:33:22.917Z,68.92
2022-11-05T17:35:50.264Z,69.22
2022-11-05T17:38:17.015Z,69.02
2022-11-05T17:40:43.569Z,69.45
2022-11-05T17:43:11.233Z,69.12
2022-11-05T17:45:46.882Z,69.29
2022-11-05T17:48:14.537Z,69.12
2022-11-05T17:50:43.117Z,68.92
2022-11-05T17:53:10.905Z,69.64
2022-11-05T17:55:40.226Z,69.79
2022-11-05T17:58:06.653Z,69.87
2022-11-05T18:00:33.069Z,69.93
2022-11-05T18:02:59.527Z,69.29
2022-11-05T18:05:27.798Z,69.38
2022-11-05T18:07:55.461Z,69.89
2022-11-05T18:10:22.687Z,69.72
2022-11-05T18:12:49.615Z,70.51
2022-11-05T18:15:16.276Z,69.94
2022-11-05T18:17:43.146Z,70.25
2022-11-05T18:20:17.385Z,70.38
2022-11-05T18:22:45.940Z,70.29
2022-11-05T18:25:13.665Z,70.53
2022-11-05T18:27:41.726Z,70.48
2022-11-05T18:30:09.605Z,70.89
2022-11-05T18:32:36.760Z,70.42
2022-11-05T18:35:06.304Z,70.22
2022-11-05T18:37:32.692Z,70.97
2022-11-05T18:39:59.188Z,70.74
2022-11-05T18:42:25.756Z,71.11
2022-11-05T18:44:52.333Z,71.15
2022-11-05T18:47:19.128Z,71.21
2022-11-05T18:49:45.554Z,71.10
2022-11-05T18:52:12.013Z,71.37
2022-11-05T18:54:38.506Z,71.56
2022-11-05T18:57:04.982Z,71.51
2022-11-05T18:59:39.742Z,71.05
2022-11-05T19:02:08.478Z,71.71
2022-11-05T19:04:36.148Z,71.53
2022-11-05T19:07:05.505Z,70.77
2022-11-05T19:09:34.434Z,71.94
2022-11-05T19:12:01.354Z,72.00
2022-11-05T19:14:27.944Z,71.16
2022-11-05T19:16:54.303Z,71.27
2022-11-05T19:19:20.689Z,71.84
2022-11-05T19:21:47.193Z,71.25
2022-11-05T19:24:17.083Z,71.51
2022-11-05T19:26:44.460Z,71.46
2022-11-05T19:29:11.534Z,71.61
2022-11-05T19:31:38.290Z,71.71
2022-11-05T19:34:05.383Z,71.31
2022-11-05T19:36:32.851Z,70.92
2022-11-05T19:39:02.497Z,71.46
2022-11-05T19:41:28.924Z,71.50
2022-11-05T19:43:57.835Z,71.63
2022-11-05T19:46:24.828Z,71.27
2022-11-05T19:48:51.790Z,71.13
2022-11-05T19:51:24.303Z,71.77
2022-11-05T19:53:52.649Z,71.13
2022-11-05T19:56:20.991Z,71.63
2022-11-05T19:58:47.636Z,71.72
2022-11-05T20:01:15.060Z,71.41
2022-11-05T20:03:41.815Z,71.88
2022-11-05T20:06:11.800Z,71.61
2022-11-05T20:09:06.677Z,71.81
2022-11-05T20:11:27.021Z,71.36
2022-11-05T20:13:53.488Z,71.29
2022-11-05T20:16:28.525Z,71.34
2022-11-05T20:18:56.721Z,71.70
2022-11-05T20:21:23.271Z,72.02
2022-11-05T20:23:49.667Z,71.71
2022-11-05T20:26:16.326Z,71.98
2022-11-05T20:28:43.630Z,71.84
2022-11-05T20:31:12.755Z,72.04
2022-11-05T20:33:40.643Z,71.69
2022-11-05T20:36:13.677Z,72.16
2022-11-05T20:38:40.460Z,72.15
2022-11-05T20:41:11.212Z,71.83
2022-11-05T20:43:40.750Z,72.94
2022-11-05T20:46:08.431Z,71.87
2022-11-05T20:48:35.528Z,71.77
2022-11-05T20:51:28.258Z,71.98
2022-11-05T20:53:56.775Z,72.03
2022-11-05T20:56:26.953Z,72.09
2022-11-05T20:58:53.795Z,72.21
2022-11-05T21:01:20.534Z,71.79
2022-11-05T21:03:47.653Z,72.30
2022-11-05T21:06:14.669Z,71.61
2022-11-05T21:08:42.563Z,71.82
2022-11-05T21:11:10.136Z,72.34
2022-11-05T21:13:37.837Z,71.77
2022-11-05T21:16:07.334Z,71.79
2022-11-05T21:18:36.547Z,71.93
2022-11-05T21:21:15.155Z,72.03
2022-11-05T21:23:41.904Z,71.44
2022-11-05T21:26:11.550Z,71.88
2022-11-05T21:28:39.764Z,71.39
2022-11-05T21:31:07.637Z,72.15
2022-11-05T21:33:34.508Z,71.79
2022-11-05T21:36:07.700Z,71.99
2022-11-05T21:38:34.159Z,71.66
2022-11-05T21:41:02.927Z,71.58
2022-11-05T21:43:29.431Z,71.32
2022-11-05T21:46:01.264Z,71.36
2022-11-05T21:48:30.427Z,71.43
2022-11-05T21:51:15.666Z,71.70
2022-11-05T21:54:00.451Z,72.24
2022-11-05T21:56:45.743Z,71.69
2022-11-05T21:59:34.092Z,71.34
2022-11-05T22:02:03.319Z,71.38
2022-11-05T22:04:38.440Z,71.39
2022-11-05T22:07:06.565Z,71.38
2022-11-05T22:09:33.292Z,71.77
2022-11-05T22:12:00.482Z,71.61
2022-11-05T22:14:27.668Z,71.72
2022-11-05T22:16:54.383Z,71.38
2022-11-05T22:19:21.281Z,71.60
2022-11-05T22:21:47.738Z,71.53
2022-11-05T22:24:14.396Z,71.74
2022-11-05T22:26:41.960Z,71.44
2022-11-05T22:29:09.065Z,71.60
2022-11-05T22:31:36.651Z,71.54
2022-11-05T22:34:04.404Z,71.78
2022-11-05T22:36:31.782Z,72.25
2022-11-05T22:38:58.355Z,72.16
2022-11-05T22:41:24.749Z,72.09
2022-11-05T22:43:51.128Z,71.84
2022-11-05T22:46:21.033Z,72.26
2022-11-05T22:48:48.234Z,71.78
2022-11-05T22:51:17.715Z,71.79
2022-11-05T22:53:44.662Z,72.12
2022-11-05T22:56:14.113Z,72.24
2022-11-05T22:58:41.196Z,71.92
2022-11-05T23:01:11.581Z,71.82
2022-11-05T23:03:40.459Z,71.61
2022-11-05T23:06:34.719Z,71.68
2022-11-05T23:09:21.874Z,71.88
2022-11-05T23:11:51.641Z,72.08
2022-11-05T23:14:18.241Z,72.22
2022-11-05T23:17:03.802Z,72.48
2022-11-05T23:19:49.726Z,72.25
2022-11-05T23:22:44.253Z,72.41
2022-11-05T23:25:14.317Z,72.32
2022-11-05T23:27:41.290Z,72.07
2022-11-05T23:30:14.424Z,72.09
2022-11-05T23:32:41.152Z,72.00
2022-11-05T23:35:08.625Z,72.72
2022-11-05T23:37:53.822Z,72.54
2022-11-05T23:40:24.412Z,72.41
2022-11-05T23:43:09.803Z,72.77
2022-11-05T23:45:47.933Z,73.19
2022-11-05T23:48:21.555Z,72.90
2022-11-05T23:50:51.783Z,72.79
2022-11-05T23:53:19.451Z,73.19
2022-11-05T23:55:46.680Z,73.18
2022-11-05T23:58:13.494Z,73.48
